Time;durP1;ratioP1;P1;durP2;ratioP2;P2;SDS_P1;SDS_P2;PMS_P1;PMS_P2;Temp;Humidity;BMP_temperature;BMP_pressure;BME280_temperature;BME280_humidity;BME280_pressure;Samples;Min_cycle;Max_cycle;Signal;HPM_P1;HPM_P2
2023/05/22 00:13:45;;;;;;;7.93;4.30;;;;;;;14.34;61.02;100371.97;30863451;28;97044;-65
2023/05/22 00:28:47;;;;;;;6.57;3.93;;;;;;;14.12;61.35;100366.59;30862494;28;97402;-64
2023/05/22 00:43:48;;;;;;;5.30;4.30;;;;;;;13.90;62.19;100367.56;30860983;28;102972;-65
2023/05/22 00:58:49;;;;;;;6.83;4.17;;;;;;;13.70;62.83;100366.28;30860143;28;96762;-66
2023/05/22 01:14:14;;;;;;;5.17;3.87;;;;;;;13.52;63.39;100366.69;30856934;28;97326;-65
2023/05/22 01:29:26;;;;;;;8.13;4.63;;;;;;;13.33;63.76;100377.91;30857456;28;97356;-65
2023/05/22 01:44:26;;;;;;;4.97;4.10;;;;;;;13.14;64.25;100380.09;30855855;28;97231;-65
2023/05/22 01:59:33;;;;;;;6.53;4.13;;;;;;;12.99;64.79;100373.91;30854583;28;97458;-65
2023/05/22 02:14:34;;;;;;;8.93;4.40;;;;;;;12.84;64.65;100364.00;30853487;28;97295;-64
2023/05/22 02:29:34;;;;;;;8.57;3.88;;;;;;;12.73;65.36;100359.09;30859003;28;96733;-65
2023/05/22 02:44:35;;;;;;;7.95;4.00;;;;;;;12.61;65.54;100352.53;30873211;28;96719;-65
2023/05/22 02:59:35;;;;;;;8.45;4.00;;;;;;;12.43;65.46;100363.50;30870790;28;105186;-64
2023/05/22 03:14:36;;;;;;;9.60;4.30;;;;;;;12.31;65.55;100357.75;30869273;28;97095;-64
2023/05/22 03:29:36;;;;;;;7.30;3.33;;;;;;;12.33;65.80;100351.22;30865161;28;102977;-66
2023/05/22 03:44:36;;;;;;;5.07;3.85;;;;;;;12.40;65.76;100347.81;30862676;28;109240;-65
2023/05/22 03:59:37;;;;;;;6.75;4.07;;;;;;;12.51;65.93;100350.09;30861108;28;118438;-66
2023/05/22 04:14:37;;;;;;;7.22;3.92;;;;;;;12.82;65.73;100347.31;30861307;28;97078;-64
2023/05/22 04:29:40;;;;;;;5.90;3.53;;;;;;;13.19;64.89;100345.63;30852325;28;99208;-64
2023/05/22 04:44:41;;;;;;;6.97;4.03;;;;;;;13.58;64.09;100348.22;30854371;28;97118;-65
2023/05/22 04:59:41;;;;;;;6.70;3.80;;;;;;;13.98;63.29;100348.69;30857716;28;97494;-64
2023/05/22 05:14:42;;;;;;;8.15;3.83;;;;;;;14.49;62.07;100356.66;30856313;28;98314;-64
2023/05/22 05:29:42;;;;;;;5.93;4.00;;;;;;;15.06;61.13;100354.03;30855912;28;101214;-64
2023/05/22 05:44:42;;;;;;;6.32;4.03;;;;;;;15.63;59.81;100351.28;30854565;28;97277;-64
2023/05/22 05:59:43;;;;;;;10.38;3.65;;;;;;;16.50;58.01;100341.63;30852132;28;108773;-64
2023/05/22 06:14:43;;;;;;;5.00;3.28;;;;;;;17.18;55.36;100337.06;30849622;28;109029;-64
2023/05/22 06:29:43;;;;;;;6.32;3.30;;;;;;;18.16;52.99;100332.56;30850948;28;107550;-65
2023/05/22 06:44:44;;;;;;;6.15;3.20;;;;;;;18.77;50.50;100336.47;30849710;28;116659;-64
2023/05/22 06:59:44;;;;;;;8.07;3.15;;;;;;;19.21;48.62;100341.91;30850050;28;96924;-65
2023/05/22 07:14:44;;;;;;;6.53;2.78;;;;;;;20.48;46.16;100345.69;30850483;28;96761;-65
2023/05/22 07:29:45;;;;;;;7.70;2.97;;;;;;;21.56;43.33;100342.78;30863645;28;99860;-64
2023/05/22 07:44:45;;;;;;;6.93;2.67;;;;;;;22.45;40.92;100336.06;30901901;28;110707;-64
2023/05/22 07:59:46;;;;;;;5.63;3.10;;;;;;;23.19;38.38;100328.78;30986704;28;116377;-64
2023/05/22 08:14:46;;;;;;;;;;;;;;;24.06;36.68;100328.19;30987462;28;97359;-63
2023/05/22 08:29:46;;;;;;;6.70;2.60;;;;;;;24.64;34.53;100317.59;30985794;28;97015;-64
2023/05/22 08:44:47;;;;;;;8.95;2.88;;;;;;;25.18;32.68;100306.47;30982959;28;96860;-63
2023/05/22 08:59:48;;;;;;;6.70;3.20;;;;;;;26.15;30.27;100296.19;30982687;28;96834;-65
2023/05/22 09:14:49;;;;;;;12.52;2.13;;;;;;;26.23;27.02;100287.47;30979995;28;97110;-65
2023/05/22 09:29:51;;;;;;;6.53;1.95;;;;;;;26.51;25.08;100277.06;30977707;28;98580;-65
2023/05/22 09:44:51;;;;;;;6.40;2.10;;;;;;;27.48;24.24;100264.25;30975625;28;96747;-65
2023/05/22 09:59:57;;;;;;;5.10;1.98;;;;;;;28.82;23.09;100246.78;30976530;28;105994;-66
2023/05/22 10:15:00;;;;;;;5.57;2.27;;;;;;;29.00;21.77;100240.53;30975985;28;97654;-66
2023/05/22 10:30:20;;;;;;;5.93;2.10;;;;;;;28.93;21.61;100240.06;30880517;28;97313;-66
2023/05/22 10:45:20;;;;;;;5.23;2.13;;;;;;;29.87;21.43;100213.84;30729281;28;97384;-66
2023/05/22 11:00:23;;;;;;;4.10;1.95;;;;;;;29.29;22.02;100214.94;30738127;28;97439;-63
2023/05/22 11:15:30;;;;;;;9.17;2.63;;;;;;;30.04;22.16;100202.34;30746231;28;97011;-65
2023/05/22 11:30:31;;;;;;;5.57;2.70;;;;;;;30.74;21.08;100207.13;30745987;28;96765;-64
2023/05/22 11:45:36;;;;;;;6.50;2.37;;;;;;;31.29;20.50;100189.75;30745830;28;96936;-64
2023/05/22 12:00:36;;;;;;;5.17;2.37;;;;;;;30.90;21.00;100186.44;30742453;28;97186;-64
2023/05/22 12:15:37;;;;;;;7.47;2.47;;;;;;;29.90;21.00;100173.19;30742803;28;96870;-65
2023/05/22 12:30:41;;;;;;;4.13;2.00;;;;;;;30.02;21.75;100166.09;30737944;28;96583;-66
2023/05/22 12:45:41;;;;;;;4.53;2.20;;;;;;;30.47;21.16;100153.75;30738935;28;97009;-64
2023/05/22 13:00:41;;;;;;;9.43;2.45;;;;;;;30.39;21.01;100153.31;30773184;28;96784;-65
2023/05/22 13:15:42;;;;;;;5.38;2.05;;;;;;;30.44;20.67;100143.34;30850271;28;104803;-64
2023/05/22 13:30:42;;;;;;;3.83;2.25;;;;;;;30.49;20.49;100121.31;30850039;28;97452;-63
2023/05/22 13:45:42;;;;;;;5.68;2.38;;;;;;;30.03;20.59;100112.81;30853906;28;97569;-64
2023/05/22 14:00:43;;;;;;;4.30;2.17;;;;;;;28.75;21.69;100101.06;30848480;28;96874;-64
2023/05/22 14:15:45;;;;;;;5.43;2.20;;;;;;;28.07;22.65;100081.81;30852623;28;105952;-64
2023/05/22 14:30:46;;;;;;;8.23;2.20;;;;;;;27.46;23.35;100069.50;30865353;28;96906;-64
2023/05/22 14:45:46;;;;;;;4.90;1.90;;;;;;;27.13;24.19;100074.63;30843566;28;97327;-64
2023/05/22 15:00:46;;;;;;;4.97;2.30;;;;;;;26.27;25.23;100059.19;30737757;28;97488;-64
2023/05/22 15:15:47;;;;;;;5.38;2.30;;;;;;;26.12;25.40;100042.84;30759131;28;96861;-64
2023/05/22 15:30:47;;;;;;;8.25;2.22;;;;;;;25.67;25.96;100026.28;30737273;28;97363;-65
2023/05/22 15:45:48;;;;;;;5.70;1.95;;;;;;;25.29;26.11;100010.19;30733490;28;97071;-65
2023/05/22 16:00:49;;;;;;;3.22;2.10;;;;;;;25.12;26.44;100004.19;30731819;28;97516;-65
2023/05/22 16:15:49;;;;;;;5.97;2.28;;;;;;;24.58;26.58;99992.63;30730956;28;96828;-65
2023/05/22 16:30:49;;;;;;;5.78;2.17;;;;;;;24.05;27.34;99990.00;30729644;28;97183;-65
2023/05/22 16:45:50;;;;;;;4.25;2.33;;;;;;;23.60;28.25;99992.16;30729136;28;96742;-66
2023/05/22 17:00:51;;;;;;;5.55;2.30;;;;;;;23.12;29.62;100004.81;30784294;28;98012;-66
2023/05/22 17:15:51;;;;;;;;;;;;;;;22.74;31.06;100014.75;30847666;28;97208;-66
2023/05/22 17:30:51;;;;;;;6.47;2.40;;;;;;;22.35;32.39;100012.13;30845089;28;97903;-66
2023/05/22 17:45:53;;;;;;;6.37;2.77;;;;;;;21.81;33.32;100002.72;30850400;28;105855;-66
2023/05/22 18:00:53;;;;;;;5.23;2.40;;;;;;;21.20;34.42;99995.28;30847647;28;97762;-66
2023/05/22 18:15:53;;;;;;;6.90;2.83;;;;;;;20.66;35.75;99989.41;30777679;28;96890;-66
2023/05/22 18:30:54;;;;;;;5.97;3.00;;;;;;;20.11;36.59;99986.19;30721446;28;96782;-66
2023/05/22 18:45:56;;;;;;;7.20;3.25;;;;;;;19.56;37.67;99995.47;30793349;28;97382;-65
2023/05/22 19:00:56;;;;;;;4.30;3.20;;;;;;;19.05;39.03;99997.75;30834361;28;96893;-66
2023/05/22 19:15:57;;;;;;;10.68;3.45;;;;;;;18.58;40.49;99996.50;30798540;28;96912;-70
2023/05/22 19:30:58;;;;;;;9.63;3.78;;;;;;;18.14;42.26;100003.91;30745424;28;96667;-65
2023/05/22 19:45:59;;;;;;;9.93;3.40;;;;;;;17.72;43.54;100009.88;30858170;28;101085;-63
2023/05/22 20:00:59;;;;;;;9.68;4.45;;;;;;;17.40;44.50;100017.19;30862803;28;97376;-67
2023/05/22 20:16:02;;;;;;;11.48;4.47;;;;;;;17.06;45.69;100009.38;30862069;28;97509;-68
2023/05/22 20:31:04;;;;;;;5.13;3.50;;;;;;;16.76;46.46;100006.44;30860232;28;97178;-65
2023/05/22 20:46:05;;;;;;;7.87;4.00;;;;;;;16.46;47.28;100006.16;30859290;28;96715;-64
2023/05/22 21:01:05;;;;;;;6.13;3.83;;;;;;;16.14;47.82;100003.38;30852059;28;110908;-63
2023/05/22 21:16:05;;;;;;;10.43;4.85;;;;;;;15.84;48.50;100004.69;30846147;28;97014;-66
2023/05/22 21:31:06;;;;;;;8.93;3.80;;;;;;;15.56;49.35;99996.84;30855494;28;96759;-64
2023/05/22 21:46:06;;;;;;;6.00;4.00;;;;;;;15.28;49.93;99989.00;30856404;28;101321;-64
2023/05/22 22:01:07;;;;;;;8.13;4.00;;;;;;;15.04;50.51;99983.22;30854152;28;97271;-65
2023/05/22 22:16:07;;;;;;;6.97;4.10;;;;;;;14.80;51.33;99987.28;30807112;28;97683;-64
2023/05/22 22:31:07;;;;;;;6.18;4.43;;;;;;;14.52;52.01;99981.00;30817259;28;98132;-65
2023/05/22 22:46:08;;;;;;;7.72;4.28;;;;;;;14.25;53.06;99971.22;30804643;28;96820;-64
2023/05/22 23:01:08;;;;;;;26.33;7.60;;;;;;;14.01;53.77;99968.00;30857916;28;97827;-66
2023/05/22 23:16:08;;;;;;;9.98;5.03;;;;;;;13.78;54.41;99969.13;30868085;28;97401;-64
2023/05/22 23:31:09;;;;;;;8.52;5.50;;;;;;;13.56;55.46;99952.31;30814915;28;96938;-64
2023/05/22 23:46:11;;;;;;;12.68;5.15;;;;;;;13.37;55.91;99943.94;30827888;28;106948;-64
